createdAt,value
2023-02-20T00:00:22.834Z,3.07
2023-02-20T00:01:25.908Z,3.07
2023-02-20T00:02:28.271Z,3.40
2023-02-20T00:03:31.429Z,3.65
2023-02-20T00:04:33.786Z,3.45
2023-02-20T00:05:36.133Z,2.80
2023-02-20T00:06:41.723Z,2.55
2023-02-20T00:07:45.405Z,3.00
2023-02-20T00:08:47.774Z,3.15
2023-02-20T00:09:50.136Z,3.52
2023-02-20T00:10:52.523Z,2.90
2023-02-20T00:11:54.933Z,2.93
2023-02-20T00:12:57.300Z,2.85
2023-02-20T00:13:59.660Z,2.65
2023-02-20T00:15:02.138Z,2.72
2023-02-20T00:16:04.972Z,2.83
2023-02-20T00:17:07.305Z,3.02
2023-02-20T00:18:11.372Z,3.05
2023-02-20T00:19:13.766Z,3.28
2023-02-20T00:20:18.889Z,3.20
2023-02-20T00:21:21.261Z,3.40
2023-02-20T00:22:24.726Z,3.62
2023-02-20T00:23:27.109Z,3.65
2023-02-20T00:24:29.519Z,3.75
2023-02-20T00:25:32.021Z,3.65
2023-02-20T00:26:34.345Z,3.48
2023-02-20T00:27:36.747Z,3.47
2023-02-20T00:28:40.126Z,3.53
2023-02-20T00:29:44.777Z,3.43
2023-02-20T00:30:47.218Z,3.08
2023-02-20T00:31:55.176Z,3.38
2023-02-20T00:32:58.396Z,3.32
2023-02-20T00:34:00.741Z,2.90
2023-02-20T00:35:03.135Z,3.13
2023-02-20T00:36:06.253Z,3.47
2023-02-20T00:37:08.836Z,3.20
2023-02-20T00:38:11.196Z,3.73
2023-02-20T00:39:14.182Z,3.97
2023-02-20T00:40:18.308Z,4.02
2023-02-20T00:41:22.040Z,4.20
2023-02-20T00:42:24.415Z,3.47
2023-02-20T00:43:26.990Z,3.87
2023-02-20T00:44:29.413Z,3.77
2023-02-20T00:45:32.209Z,3.47
2023-02-20T00:46:34.546Z,3.62
2023-02-20T00:47:36.967Z,3.38
2023-02-20T00:48:39.378Z,3.50
2023-02-20T00:49:41.725Z,3.20
2023-02-20T00:50:44.054Z,3.30
2023-02-20T00:51:46.549Z,3.27
2023-02-20T00:52:48.857Z,3.60
2023-02-20T00:53:51.273Z,3.20
2023-02-20T00:54:53.693Z,3.52
2023-02-20T00:55:56.016Z,3.37
2023-02-20T00:56:58.327Z,3.65
2023-02-20T00:58:00.680Z,3.85
2023-02-20T00:59:03.114Z,3.88
2023-02-20T01:00:07.769Z,3.82
2023-02-20T01:01:10.231Z,4.07
2023-02-20T01:02:12.598Z,4.27
2023-02-20T01:03:15.032Z,4.07
2023-02-20T01:04:17.465Z,4.07
2023-02-20T01:05:19.945Z,3.70
2023-02-20T01:06:22.353Z,3.43
2023-02-20T01:07:24.710Z,3.58
2023-02-20T01:08:27.107Z,4.25
2023-02-20T01:09:29.519Z,4.53
2023-02-20T01:10:31.883Z,3.87
2023-02-20T01:11:34.241Z,3.85
2023-02-20T01:12:36.788Z,3.77
2023-02-20T01:13:39.233Z,3.73
2023-02-20T01:14:41.933Z,4.05
2023-02-20T01:15:44.329Z,4.52
2023-02-20T01:16:48.357Z,4.92
2023-02-20T01:17:50.845Z,5.10
2023-02-20T01:18:53.174Z,4.77
2023-02-20T01:19:56.055Z,4.72
2023-02-20T01:20:58.439Z,4.65
2023-02-20T01:22:01.122Z,4.27
2023-02-20T01:23:03.503Z,4.15
2023-02-20T01:24:06.065Z,4.02
2023-02-20T01:25:08.422Z,3.82
2023-02-20T01:26:11.115Z,3.72
2023-02-20T01:27:13.773Z,3.80
2023-02-20T01:28:16.823Z,3.55
2023-02-20T01:29:19.224Z,3.32
2023-02-20T01:30:21.696Z,3.23
2023-02-20T01:31:25.087Z,3.50
2023-02-20T01:32:27.453Z,3.65
2023-02-20T01:33:29.765Z,3.60
2023-02-20T01:34:32.151Z,3.28
2023-02-20T01:35:34.648Z,3.50
2023-02-20T01:36:38.201Z,3.72
2023-02-20T01:37:40.557Z,3.63
2023-02-20T01:38:42.961Z,3.60
2023-02-20T01:39:48.223Z,3.75
2023-02-20T01:40:50.652Z,4.03
2023-02-20T01:41:58.127Z,3.83
2023-02-20T01:43:00.606Z,3.82
2023-02-20T01:44:03.005Z,3.83
2023-02-20T01:45:23.526Z,4.25
2023-02-20T01:46:28.668Z,4.05
2023-02-20T01:47:31.093Z,3.78
2023-02-20T01:48:33.401Z,4.25
2023-02-20T01:49:35.695Z,4.03
2023-02-20T01:50:43.031Z,4.20
2023-02-20T01:51:50.180Z,3.77
2023-02-20T01:52:56.125Z,3.95
2023-02-20T01:53:58.510Z,3.83
2023-02-20T01:55:06.500Z,4.07
2023-02-20T01:56:09.826Z,4.55
2023-02-20T01:57:18.050Z,4.15
2023-02-20T01:58:39.525Z,4.20
2023-02-20T01:59:42.909Z,4.27
2023-02-20T02:00:45.454Z,4.75
2023-02-20T02:01:48.716Z,4.48
2023-02-20T02:02:56.906Z,4.33
2023-02-20T02:04:03.423Z,4.43
2023-02-20T02:05:06.400Z,4.55
2023-02-20T02:06:10.992Z,4.68
2023-02-20T02:07:15.291Z,4.15
2023-02-20T02:08:20.561Z,4.37
2023-02-20T02:09:37.834Z,4.45
2023-02-20T02:10:49.559Z,4.62
2023-02-20T02:11:52.777Z,4.48
2023-02-20T02:12:55.240Z,4.90
2023-02-20T02:13:57.644Z,4.70
2023-02-20T02:14:59.952Z,4.53
2023-02-20T02:16:33.202Z,5.23
2023-02-20T02:17:57.298Z,5.00
2023-02-20T02:19:24.354Z,5.23
2023-02-20T02:20:52.294Z,5.32
2023-02-20T02:22:21.920Z,5.13
2023-02-20T02:23:36.289Z,5.27
2023-02-20T02:24:57.063Z,5.30
2023-02-20T02:26:26.625Z,5.23
2023-02-20T02:27:50.288Z,6.05
2023-02-20T02:29:01.634Z,5.78
2023-02-20T02:30:04.298Z,6.25
2023-02-20T02:31:45.334Z,5.82
2023-02-20T02:32:57.235Z,5.68
2023-02-20T02:34:41.049Z,5.80
2023-02-20T02:36:16.503Z,5.88
2023-02-20T02:37:36.397Z,6.03
2023-02-20T02:38:53.530Z,6.25
2023-02-20T02:40:08.442Z,6.00
2023-02-20T02:41:55.201Z,6.27
2023-02-20T02:43:34.977Z,5.70
2023-02-20T02:44:46.316Z,6.07
2023-02-20T02:46:04.162Z,6.38
2023-02-20T02:47:16.745Z,6.18
2023-02-20T02:48:28.236Z,6.38
2023-02-20T02:49:55.039Z,6.28
2023-02-20T02:51:02.933Z,6.28
2023-02-20T02:52:06.182Z,6.42
2023-02-20T02:53:09.630Z,6.27
2023-02-20T02:54:22.348Z,6.38
2023-02-20T02:55:30.403Z,6.82
2023-02-20T02:56:42.013Z,6.92
2023-02-20T02:57:44.833Z,6.30
2023-02-20T02:58:52.947Z,6.17
2023-02-20T03:00:00.808Z,6.83
2023-02-20T03:01:03.327Z,6.65
2023-02-20T03:02:10.051Z,6.47
2023-02-20T03:03:21.741Z,6.70
2023-02-20T03:04:25.753Z,7.15
2023-02-20T03:05:40.088Z,6.90
2023-02-20T03:06:45.476Z,7.50
2023-02-20T03:07:52.994Z,7.22
2023-02-20T03:09:31.922Z,7.60
2023-02-20T03:10:34.226Z,7.12
2023-02-20T03:11:38.760Z,7.73
2023-02-20T03:12:43.473Z,7.83
2023-02-20T03:14:08.777Z,7.68
2023-02-20T03:15:29.565Z,8.00
2023-02-20T03:17:08.234Z,7.93
2023-02-20T03:18:34.829Z,8.53
2023-02-20T03:19:41.860Z,7.95
2023-02-20T03:20:47.239Z,8.55
2023-02-20T03:21:51.297Z,8.77
2023-02-20T03:22:57.316Z,8.37
2023-02-20T03:24:03.382Z,8.13
2023-02-20T03:25:13.718Z,8.03
2023-02-20T03:26:23.922Z,8.33
2023-02-20T03:27:38.990Z,7.90
2023-02-20T03:28:44.994Z,7.82
2023-02-20T03:29:48.874Z,8.68
2023-02-20T03:31:00.520Z,9.18
2023-02-20T03:32:26.424Z,7.82
2023-02-20T03:33:52.243Z,8.35
2023-02-20T03:35:14.671Z,8.32
2023-02-20T03:36:53.720Z,7.78
2023-02-20T03:38:14.953Z,7.78
2023-02-20T03:39:49.448Z,7.38
2023-02-20T03:41:10.964Z,7.52
2023-02-20T03:42:34.636Z,7.43
2023-02-20T03:43:38.388Z,7.62
2023-02-20T03:44:41.874Z,7.88
2023-02-20T03:45:46.219Z,7.92
2023-02-20T03:46:51.070Z,8.12
2023-02-20T03:47:59.444Z,8.17
2023-02-20T03:49:27.732Z,8.22
2023-02-20T03:50:30.195Z,8.73
2023-02-20T03:51:51.397Z,9.28
2023-02-20T03:52:53.741Z,8.47
2023-02-20T03:53:57.030Z,8.27
2023-02-20T03:54:59.498Z,7.65
2023-02-20T03:56:07.276Z,7.52
2023-02-20T03:57:13.670Z,7.52
2023-02-20T03:58:19.189Z,7.60
2023-02-20T03:59:27.057Z,7.57
2023-02-20T04:00:33.269Z,7.17
2023-02-20T04:01:37.923Z,7.03
2023-02-20T04:02:43.962Z,7.07
2023-02-20T04:03:48.365Z,7.00
2023-02-20T04:04:54.033Z,6.88
2023-02-20T04:05:58.048Z,7.05
2023-02-20T04:07:04.433Z,7.20
2023-02-20T04:08:11.823Z,7.33
2023-02-20T04:09:41.234Z,7.72
2023-02-20T04:10:58.707Z,6.98
2023-02-20T04:12:07.601Z,7.18
2023-02-20T04:13:12.613Z,7.42
2023-02-20T04:14:19.323Z,7.23
2023-02-20T04:15:23.313Z,6.93
2023-02-20T04:16:26.110Z,7.00
2023-02-20T04:17:34.676Z,7.10
2023-02-20T04:18:37.261Z,7.00
2023-02-20T04:19:39.936Z,7.17
2023-02-20T04:20:42.299Z,6.95
2023-02-20T04:21:50.538Z,6.83
2023-02-20T04:22:57.113Z,6.97
2023-02-20T04:24:10.224Z,6.67
2023-02-20T04:25:21.864Z,6.33
2023-02-20T04:26:24.566Z,6.67
2023-02-20T04:27:27.262Z,7.07
2023-02-20T04:28:30.100Z,7.17
2023-02-20T04:29:32.821Z,6.65
2023-02-20T04:30:35.453Z,7.12
2023-02-20T04:31:37.958Z,6.70
2023-02-20T04:32:40.356Z,6.95
2023-02-20T04:33:42.682Z,6.83
2023-02-20T04:34:45.109Z,6.77
2023-02-20T04:35:47.521Z,7.35
2023-02-20T04:36:54.138Z,6.75
2023-02-20T04:37:57.016Z,6.65
2023-02-20T04:38:59.357Z,7.07
2023-02-20T04:40:01.722Z,7.07
2023-02-20T04:41:04.324Z,6.35
2023-02-20T04:42:07.201Z,6.93
2023-02-20T04:43:09.688Z,6.82
2023-02-20T04:44:30.349Z,6.88
2023-02-20T04:45:33.116Z,6.67
2023-02-20T04:46:35.480Z,7.30
2023-02-20T04:47:37.929Z,6.23
2023-02-20T04:48:40.300Z,6.38
2023-02-20T04:49:42.755Z,6.62
2023-02-20T04:50:45.080Z,6.42
2023-02-20T04:51:47.384Z,6.60
2023-02-20T04:52:49.785Z,6.47
2023-02-20T04:53:52.389Z,6.72
2023-02-20T04:54:54.706Z,6.23
2023-02-20T04:55:57.028Z,6.30
2023-02-20T04:56:59.449Z,6.43
2023-02-20T04:58:01.864Z,6.52
2023-02-20T04:59:04.324Z,6.57
2023-02-20T05:00:08.947Z,6.57
2023-02-20T05:01:11.376Z,6.63
2023-02-20T05:02:13.725Z,6.70
2023-02-20T05:03:16.094Z,6.65
2023-02-20T05:04:20.406Z,6.28
2023-02-20T05:05:28.099Z,6.37
2023-02-20T05:06:30.609Z,6.58
2023-02-20T05:07:33.729Z,6.53
2023-02-20T05:08:36.096Z,7.28
2023-02-20T05:09:38.438Z,6.97
2023-02-20T05:10:40.823Z,7.15
2023-02-20T05:11:43.216Z,7.05
2023-02-20T05:12:45.584Z,6.60
2023-02-20T05:13:47.932Z,6.80
2023-02-20T05:14:50.265Z,6.20
2023-02-20T05:15:52.647Z,6.40
2023-02-20T05:16:54.992Z,6.10
2023-02-20T05:17:57.700Z,6.38
2023-02-20T05:19:03.158Z,6.45
2023-02-20T05:20:06.549Z,6.23
2023-02-20T05:21:32.295Z,6.15
2023-02-20T05:22:34.758Z,5.98
2023-02-20T05:23:37.127Z,5.68
2023-02-20T05:24:39.450Z,6.00
2023-02-20T05:25:41.814Z,5.60
2023-02-20T05:26:44.243Z,5.37
2023-02-20T05:27:46.601Z,5.40
2023-02-20T05:28:48.964Z,5.47
2023-02-20T05:29:53.792Z,5.12
2023-02-20T05:30:56.144Z,4.88
2023-02-20T05:31:58.514Z,5.38
2023-02-20T05:33:00.847Z,5.32
2023-02-20T05:34:03.246Z,5.53
2023-02-20T05:35:05.848Z,5.12
2023-02-20T05:36:08.615Z,5.15
2023-02-20T05:37:13.076Z,5.45
2023-02-20T05:38:19.137Z,5.30
2023-02-20T05:39:21.571Z,5.47
2023-02-20T05:40:23.971Z,5.90
2023-02-20T05:41:26.358Z,5.85
2023-02-20T05:42:28.711Z,5.88
2023-02-20T05:43:31.053Z,5.15
2023-02-20T05:44:33.578Z,5.80
2023-02-20T05:45:35.898Z,5.37
2023-02-20T05:46:42.621Z,5.10
2023-02-20T05:47:45.050Z,4.93
2023-02-20T05:48:51.341Z,5.25
2023-02-20T05:49:53.726Z,4.78
2023-02-20T05:50:56.077Z,5.17
2023-02-20T05:51:58.574Z,4.68
2023-02-20T05:53:00.922Z,4.82
2023-02-20T05:54:04.262Z,4.92
2023-02-20T05:55:06.922Z,5.03
2023-02-20T05:56:09.228Z,5.10
2023-02-20T05:57:12.057Z,4.82
2023-02-20T05:58:14.836Z,5.15
2023-02-20T05:59:19.801Z,5.10
2023-02-20T06:00:22.354Z,5.80
2023-02-20T06:01:32.069Z,5.47
2023-02-20T06:02:34.821Z,5.73
2023-02-20T06:03:38.179Z,6.13
2023-02-20T06:04:40.623Z,6.07
2023-02-20T06:05:43.199Z,5.68
2023-02-20T06:06:45.553Z,5.93
2023-02-20T06:07:47.924Z,5.60
2023-02-20T06:08:50.326Z,5.53
2023-02-20T06:09:52.630Z,5.28
2023-02-20T06:10:56.078Z,5.92
2023-02-20T06:11:58.448Z,5.80
2023-02-20T06:13:00.968Z,5.68
2023-02-20T06:14:04.434Z,5.52
2023-02-20T06:15:07.032Z,5.37
2023-02-20T06:16:10.497Z,5.55
2023-02-20T06:17:13.110Z,5.35
2023-02-20T06:18:15.478Z,5.33
2023-02-20T06:19:24.798Z,5.50
2023-02-20T06:20:27.173Z,5.63
2023-02-20T06:21:29.567Z,5.38
2023-02-20T06:22:31.985Z,5.25
2023-02-20T06:23:34.620Z,5.03
2023-02-20T06:24:36.972Z,5.03
2023-02-20T06:25:39.292Z,5.83
2023-02-20T06:26:42.952Z,5.53
2023-02-20T06:27:45.301Z,5.03
2023-02-20T06:28:50.256Z,4.93
2023-02-20T06:29:53.033Z,5.50
2023-02-20T06:30:56.106Z,5.88
2023-02-20T06:32:00.175Z,5.73
2023-02-20T06:33:02.654Z,5.92
2023-02-20T06:34:05.113Z,6.25
2023-02-20T06:35:08.219Z,5.87
2023-02-20T06:36:23.567Z,5.68
2023-02-20T06:37:26.579Z,5.15
2023-02-20T06:38:30.214Z,5.40
2023-02-20T06:39:34.219Z,5.02
2023-02-20T06:40:37.281Z,4.77
2023-02-20T06:41:41.262Z,5.22
2023-02-20T06:42:45.641Z,5.88
2023-02-20T06:44:06.327Z,6.30
2023-02-20T06:45:35.548Z,6.70
2023-02-20T06:46:38.147Z,6.35
2023-02-20T06:47:40.645Z,6.20
2023-02-20T06:48:50.322Z,6.07
2023-02-20T06:49:52.712Z,6.20
2023-02-20T06:50:56.403Z,6.25
2023-02-20T06:51:58.931Z,6.07
2023-02-20T06:53:03.751Z,5.60
2023-02-20T06:54:07.066Z,5.70
2023-02-20T06:55:09.495Z,5.85
2023-02-20T06:56:19.244Z,5.57
2023-02-20T06:57:23.676Z,5.00
2023-02-20T06:58:27.131Z,5.13
2023-02-20T06:59:33.068Z,5.27
2023-02-20T07:00:35.916Z,6.92
2023-02-20T07:01:41.404Z,6.98
2023-02-20T07:02:44.044Z,6.43
2023-02-20T07:03:49.950Z,5.80
2023-02-20T07:04:52.996Z,4.97
2023-02-20T07:05:56.249Z,5.55
2023-02-20T07:07:00.319Z,5.33
2023-02-20T07:08:03.177Z,5.17
2023-02-20T07:09:06.917Z,4.92
2023-02-20T07:10:10.077Z,5.28
2023-02-20T07:11:13.556Z,4.90
2023-02-20T07:12:16.598Z,4.90
2023-02-20T07:13:19.317Z,5.40
2023-02-20T07:14:21.999Z,5.18
2023-02-20T07:15:24.386Z,5.37
2023-02-20T07:16:26.828Z,5.12
2023-02-20T07:17:29.304Z,5.43
2023-02-20T07:18:31.724Z,5.12
2023-02-20T07:19:34.210Z,4.93
2023-02-20T07:20:36.669Z,4.82
2023-02-20T07:21:39.205Z,5.22
2023-02-20T07:22:50.108Z,5.00
2023-02-20T07:23:53.617Z,5.55
2023-02-20T07:24:56.516Z,5.83
2023-02-20T07:25:58.916Z,5.05
2023-02-20T07:27:01.619Z,4.85
2023-02-20T07:28:04.478Z,5.15
2023-02-20T07:29:07.615Z,5.10
2023-02-20T07:30:10.696Z,6.25
2023-02-20T07:31:13.066Z,6.18
2023-02-20T07:32:18.968Z,6.17
2023-02-20T07:33:21.505Z,6.05
2023-02-20T07:34:23.800Z,5.23
2023-02-20T07:35:26.322Z,5.30
2023-02-20T07:36:28.866Z,5.02
2023-02-20T07:37:31.425Z,4.65
2023-02-20T07:38:33.764Z,5.33
2023-02-20T07:39:36.291Z,5.18
2023-02-20T07:40:40.022Z,5.03
2023-02-20T07:41:43.113Z,4.52
2023-02-20T07:42:47.567Z,5.00
2023-02-20T07:43:50.235Z,5.05
2023-02-20T07:44:53.278Z,5.18
2023-02-20T07:45:56.649Z,5.00
2023-02-20T07:46:59.056Z,5.45
2023-02-20T07:48:04.538Z,6.03
2023-02-20T07:49:23.642Z,6.77
2023-02-20T07:50:50.997Z,8.20
2023-02-20T07:51:57.713Z,11.23
2023-02-20T07:53:04.998Z,10.57
2023-02-20T07:54:09.197Z,10.20
2023-02-20T07:55:19.353Z,10.55
2023-02-20T07:56:24.881Z,9.10
2023-02-20T07:57:27.591Z,9.53
2023-02-20T07:58:29.951Z,8.73
2023-02-20T07:59:32.399Z,9.12
2023-02-20T08:00:55.587Z,8.45
2023-02-20T08:02:18.090Z,8.12
2023-02-20T08:03:20.720Z,8.78
2023-02-20T08:04:23.300Z,8.33
2023-02-20T08:05:26.262Z,6.90
2023-02-20T08:06:29.165Z,6.85
2023-02-20T08:07:31.600Z,7.00
2023-02-20T08:08:34.033Z,6.80
2023-02-20T08:09:36.388Z,6.98
2023-02-20T08:10:38.892Z,5.95
2023-02-20T08:11:41.289Z,6.03
2023-02-20T08:12:43.912Z,5.33
2023-02-20T08:13:46.443Z,5.43
2023-02-20T08:14:52.018Z,4.52
2023-02-20T08:15:54.430Z,4.63
2023-02-20T08:16:56.938Z,5.00
2023-02-20T08:17:59.388Z,5.80
2023-02-20T08:19:02.196Z,5.72
2023-02-20T08:20:05.866Z,4.28
2023-02-20T08:21:08.334Z,4.25
2023-02-20T08:22:11.072Z,4.55
2023-02-20T08:23:17.975Z,4.62
2023-02-20T08:24:20.378Z,4.38
2023-02-20T08:25:22.992Z,3.98
2023-02-20T08:26:25.519Z,3.78
2023-02-20T08:27:27.955Z,4.07
2023-02-20T08:28:33.226Z,3.88
2023-02-20T08:29:35.666Z,3.93
2023-02-20T08:30:38.088Z,3.80
2023-02-20T08:31:40.705Z,3.97
2023-02-20T08:32:43.246Z,3.92
2023-02-20T08:33:45.690Z,4.08
2023-02-20T08:34:48.138Z,3.47
2023-02-20T08:35:54.204Z,3.85
2023-02-20T08:36:56.664Z,3.82
2023-02-20T08:37:59.014Z,3.88
2023-02-20T08:39:03.619Z,3.97
2023-02-20T08:40:08.785Z,4.28
2023-02-20T08:41:12.572Z,3.77
2023-02-20T08:42:16.893Z,3.85
2023-02-20T08:43:19.404Z,3.87
2023-02-20T08:44:33.640Z,4.03
2023-02-20T08:45:42.230Z,5.38
2023-02-20T08:46:52.555Z,5.07
2023-02-20T08:48:25.518Z,4.60
2023-02-20T08:50:13.811Z,4.57
2023-02-20T08:51:20.564Z,4.28
2023-02-20T08:52:23.170Z,4.07
2023-02-20T08:53:26.047Z,4.12
2023-02-20T08:54:28.434Z,4.00
2023-02-20T08:55:30.834Z,3.98
2023-02-20T08:56:33.186Z,4.25
2023-02-20T08:57:36.025Z,4.52
2023-02-20T08:58:38.715Z,4.30
2023-02-20T08:59:41.125Z,4.20
2023-02-20T09:00:44.669Z,4.28
2023-02-20T09:01:47.098Z,4.10
2023-02-20T09:02:49.693Z,4.25
2023-02-20T09:03:52.150Z,4.10
2023-02-20T09:04:55.547Z,3.82
2023-02-20T09:05:58.037Z,4.00
2023-02-20T09:07:00.377Z,4.13
2023-02-20T09:08:03.331Z,4.12
2023-02-20T09:09:05.722Z,4.22
2023-02-20T09:10:09.477Z,4.38
2023-02-20T09:11:12.182Z,4.75
2023-02-20T09:12:14.700Z,4.33
2023-02-20T09:13:17.216Z,4.37
2023-02-20T09:14:19.637Z,4.08
2023-02-20T09:15:22.276Z,4.87
2023-02-20T09:16:25.257Z,4.90
2023-02-20T09:17:28.382Z,4.67
2023-02-20T09:18:30.758Z,4.10
2023-02-20T09:19:33.508Z,4.47
2023-02-20T09:20:36.680Z,4.55
2023-02-20T09:21:39.038Z,4.57
2023-02-20T09:22:41.596Z,4.03
2023-02-20T09:23:44.069Z,4.50
2023-02-20T09:24:47.545Z,4.55
2023-02-20T09:25:50.962Z,3.88
2023-02-20T09:26:53.350Z,4.10
2023-02-20T09:27:55.724Z,4.38
2023-02-20T09:28:58.112Z,4.33
2023-02-20T09:30:00.928Z,4.18
2023-02-20T09:31:03.678Z,4.03
2023-02-20T09:32:06.960Z,4.07
2023-02-20T09:33:09.642Z,4.10
2023-02-20T09:34:12.059Z,3.90
2023-02-20T09:35:27.593Z,4.00
2023-02-20T09:36:31.296Z,3.85
2023-02-20T09:37:33.886Z,3.72
2023-02-20T09:38:36.373Z,3.58
2023-02-20T09:39:42.893Z,3.88
2023-02-20T09:40:50.333Z,4.17
2023-02-20T09:42:12.064Z,4.08
2023-02-20T09:43:58.943Z,4.08
2023-02-20T09:45:20.646Z,4.23
2023-02-20T09:46:46.261Z,4.13
2023-02-20T09:48:22.657Z,4.27
2023-02-20T09:49:27.944Z,4.50
2023-02-20T09:50:35.113Z,4.60
2023-02-20T09:51:41.812Z,4.80
2023-02-20T09:52:52.248Z,5.08
2023-02-20T09:54:04.815Z,5.00
2023-02-20T09:55:13.326Z,4.53
2023-02-20T09:56:27.049Z,5.03
2023-02-20T09:57:30.396Z,4.55
2023-02-20T09:58:45.765Z,5.20
2023-02-20T09:59:52.778Z,4.72
2023-02-20T10:01:01.045Z,5.13
2023-02-20T10:02:14.209Z,5.18
2023-02-20T10:03:24.946Z,4.47
2023-02-20T10:05:01.232Z,4.85
2023-02-20T10:06:16.825Z,4.47
2023-02-20T10:07:38.219Z,5.45
2023-02-20T10:08:40.555Z,4.98
2023-02-20T10:09:43.498Z,5.17
2023-02-20T10:10:49.277Z,5.00
2023-02-20T10:12:08.895Z,5.10
2023-02-20T10:13:29.255Z,5.22
2023-02-20T10:14:35.285Z,5.00
2023-02-20T10:16:05.609Z,5.30
2023-02-20T10:17:24.305Z,5.77
2023-02-20T10:18:45.937Z,6.07
2023-02-20T10:19:54.469Z,5.78
2023-02-20T10:21:23.803Z,5.77
2023-02-20T10:22:32.713Z,5.50
2023-02-20T10:24:04.587Z,5.90
2023-02-20T10:25:31.063Z,5.82
2023-02-20T10:26:37.857Z,5.43
2023-02-20T10:27:51.731Z,5.85
2023-02-20T10:28:56.556Z,6.73
2023-02-20T10:30:01.556Z,6.23
2023-02-20T10:31:34.171Z,6.45
2023-02-20T10:32:44.269Z,6.18
2023-02-20T10:33:53.213Z,6.15
2023-02-20T10:35:07.291Z,5.75
2023-02-20T10:36:24.309Z,5.95
2023-02-20T10:37:46.591Z,6.17
2023-02-20T10:39:07.091Z,6.42
2023-02-20T10:40:20.379Z,6.85
2023-02-20T10:41:25.757Z,6.20
2023-02-20T10:42:42.956Z,6.22
2023-02-20T10:44:16.710Z,6.27
2023-02-20T10:45:30.391Z,6.02
2023-02-20T10:46:48.859Z,6.12
2023-02-20T10:48:06.706Z,6.30
2023-02-20T10:49:25.907Z,5.82
2023-02-20T10:50:41.140Z,5.97
2023-02-20T10:51:47.277Z,5.62
2023-02-20T10:53:01.611Z,5.77
2023-02-20T10:54:12.783Z,5.50
2023-02-20T10:55:30.046Z,6.42
2023-02-20T10:57:12.478Z,5.80
2023-02-20T10:58:23.023Z,5.98
2023-02-20T10:59:30.930Z,5.48
2023-02-20T11:00:50.334Z,5.77
2023-02-20T11:01:56.865Z,6.22
2023-02-20T11:03:13.044Z,5.63
2023-02-20T11:04:36.779Z,5.98
2023-02-20T11:05:45.767Z,6.28
2023-02-20T11:07:12.767Z,6.70
2023-02-20T11:08:20.827Z,6.33
2023-02-20T11:09:27.012Z,6.00
2023-02-20T11:10:30.890Z,5.93
2023-02-20T11:11:36.464Z,6.37
2023-02-20T11:12:44.408Z,6.18
2023-02-20T11:13:47.068Z,5.90
2023-02-20T11:14:50.841Z,6.35
2023-02-20T11:15:58.652Z,5.67
2023-02-20T11:17:07.211Z,6.30
2023-02-20T11:18:35.607Z,6.08
2023-02-20T11:19:45.229Z,6.60
2023-02-20T11:20:56.588Z,6.65
2023-02-20T11:22:02.342Z,6.50
2023-02-20T11:23:05.056Z,6.63
2023-02-20T11:24:33.173Z,7.00
2023-02-20T11:25:42.206Z,6.57
2023-02-20T11:26:47.476Z,6.55
2023-02-20T11:30:34.468Z,6.73
2023-02-20T11:31:45.802Z,7.10
2023-02-20T11:34:46.225Z,6.93
2023-02-20T11:35:58.233Z,7.22
2023-02-20T11:37:10.041Z,7.33
2023-02-20T11:38:34.298Z,7.35
2023-02-20T11:39:40.732Z,6.90
2023-02-20T11:40:48.770Z,7.08
2023-02-20T11:42:06.245Z,7.18
2023-02-20T11:43:22.284Z,7.23
2023-02-20T11:44:26.267Z,6.82
2023-02-20T11:45:30.640Z,7.08
2023-02-20T11:46:34.367Z,7.18
2023-02-20T11:47:39.618Z,6.85
2023-02-20T11:49:02.785Z,7.13
2023-02-20T11:50:19.060Z,6.90
2023-02-20T11:51:39.166Z,7.37
2023-02-20T11:53:08.017Z,7.37
2023-02-20T11:54:17.583Z,6.98
2023-02-20T11:55:23.128Z,6.53
2023-02-20T11:56:25.935Z,6.90
2023-02-20T11:57:30.046Z,7.33
2023-02-20T11:58:33.036Z,6.52
2023-02-20T11:59:57.165Z,6.83
2023-02-20T12:00:59.604Z,6.55
2023-02-20T12:02:17.520Z,6.55
2023-02-20T12:03:45.522Z,6.95
2023-02-20T12:05:13.914Z,6.92
2023-02-20T12:06:39.180Z,7.22
2023-02-20T12:07:53.370Z,7.35
2023-02-20T12:09:00.602Z,6.95
2023-02-20T12:10:19.736Z,6.67
2023-02-20T12:11:26.050Z,7.48
2023-02-20T12:12:32.412Z,7.20
2023-02-20T12:13:40.657Z,6.97
2023-02-20T12:14:43.127Z,6.77
2023-02-20T12:15:52.117Z,6.57
2023-02-20T12:17:15.769Z,6.90
2023-02-20T12:18:39.821Z,6.90
2023-02-20T12:19:48.333Z,6.87
2023-02-20T12:21:24.072Z,6.80
2023-02-20T12:22:35.204Z,7.20
2023-02-20T12:23:52.473Z,6.75
2023-02-20T12:25:09.494Z,6.85
2023-02-20T12:26:22.143Z,6.98
2023-02-20T12:29:48.312Z,7.22
2023-02-20T12:31:53.413Z,6.48
2023-02-20T12:33:49.066Z,6.98
2023-02-20T12:35:21.357Z,6.97
2023-02-20T12:36:33.694Z,6.65
2023-02-20T12:37:57.856Z,7.42
2023-02-20T12:39:18.344Z,7.05
2023-02-20T12:40:43.137Z,7.15
2023-02-20T12:42:00.324Z,6.85
2023-02-20T12:43:32.260Z,7.03
2023-02-20T12:44:50.137Z,7.07
2023-02-20T12:46:01.824Z,6.93
2023-02-20T12:47:44.184Z,6.93
2023-02-20T12:49:00.299Z,7.00
2023-02-20T12:50:03.977Z,6.90
2023-02-20T12:51:13.349Z,7.10
2023-02-20T12:52:31.960Z,6.65
2023-02-20T12:53:59.994Z,7.07
2023-02-20T12:55:20.666Z,7.15
2023-02-20T12:56:48.384Z,7.48
2023-02-20T12:58:18.845Z,7.22
2023-02-20T12:59:21.154Z,6.47
2023-02-20T13:00:45.085Z,7.22
2023-02-20T13:01:48.851Z,7.22
2023-02-20T13:02:58.376Z,7.05
2023-02-20T13:04:11.700Z,7.22
2023-02-20T13:05:22.132Z,7.53
2023-02-20T13:06:32.022Z,7.45
2023-02-20T13:07:38.798Z,8.17
2023-02-20T13:08:52.532Z,8.85
2023-02-20T13:10:10.666Z,7.97
2023-02-20T13:11:22.924Z,7.95
2023-02-20T13:12:26.518Z,8.10
2023-02-20T13:13:50.196Z,7.80
2023-02-20T13:15:07.633Z,7.83
2023-02-20T13:19:06.098Z,7.28
2023-02-20T13:20:19.803Z,7.53
2023-02-20T13:21:30.950Z,6.88
2023-02-20T13:22:34.325Z,7.72
2023-02-20T13:23:41.562Z,7.42
2023-02-20T13:24:46.841Z,7.65
2023-02-20T13:25:51.124Z,7.73
2023-02-20T13:26:57.025Z,7.55
2023-02-20T13:28:20.668Z,7.28
2023-02-20T13:29:28.721Z,8.08
2023-02-20T13:30:34.262Z,8.33
2023-02-20T13:31:36.783Z,7.85
2023-02-20T13:32:39.344Z,7.72
2023-02-20T13:33:44.848Z,7.28
2023-02-20T13:34:47.897Z,7.45
2023-02-20T13:35:55.413Z,7.70
2023-02-20T13:36:58.691Z,7.03
2023-02-20T13:39:41.951Z,9.42
2023-02-20T13:40:56.979Z,12.95
2023-02-20T13:42:04.993Z,12.08
2023-02-20T13:43:13.304Z,8.83
2023-02-20T13:44:37.756Z,7.17
2023-02-20T13:45:44.128Z,7.93
2023-02-20T13:46:58.569Z,8.10
2023-02-20T13:48:41.835Z,8.62
2023-02-20T13:49:50.006Z,7.87
2023-02-20T13:51:15.477Z,7.68
2023-02-20T13:52:30.440Z,7.37
2023-02-20T13:53:33.117Z,6.77
2023-02-20T13:54:35.800Z,7.33
2023-02-20T13:55:38.362Z,7.00
2023-02-20T13:56:52.008Z,7.08
2023-02-20T13:57:57.135Z,7.03
2023-02-20T13:58:59.652Z,7.15
2023-02-20T14:00:04.557Z,6.77
2023-02-20T14:01:09.121Z,7.30
2023-02-20T14:02:20.175Z,7.08
2023-02-20T14:03:26.762Z,6.75
2023-02-20T14:04:29.559Z,7.22
2023-02-20T14:05:32.784Z,6.68
2023-02-20T14:06:35.263Z,7.48
2023-02-20T14:07:40.643Z,7.38
2023-02-20T14:08:45.154Z,7.12
2023-02-20T14:10:00.542Z,7.17
2023-02-20T14:11:08.735Z,6.93
2023-02-20T14:12:13.602Z,7.02
2023-02-20T14:13:38.957Z,6.65
2023-02-20T14:14:45.442Z,6.82
2023-02-20T14:16:30.848Z,6.88
2023-02-20T14:18:11.314Z,6.67
2023-02-20T14:19:27.941Z,6.28
2023-02-20T14:20:38.738Z,6.43
2023-02-20T14:21:41.622Z,6.37
2023-02-20T14:22:45.115Z,7.28
2023-02-20T14:23:48.768Z,7.17
2023-02-20T14:25:18.634Z,6.42
2023-02-20T14:26:27.374Z,6.12
2023-02-20T14:27:34.086Z,5.97
2023-02-20T14:28:37.034Z,6.27
2023-02-20T14:29:42.858Z,6.03
2023-02-20T14:30:45.437Z,5.83
2023-02-20T14:31:55.619Z,6.10
2023-02-20T14:32:58.606Z,6.33
2023-02-20T14:34:02.283Z,5.97
2023-02-20T14:35:24.279Z,5.97
2023-02-20T14:36:37.153Z,5.77
2023-02-20T14:37:51.752Z,6.32
2023-02-20T14:39:02.718Z,6.13
2023-02-20T14:40:19.383Z,6.10
2023-02-20T14:41:23.842Z,6.13
2023-02-20T14:42:26.457Z,5.82
2023-02-20T14:43:29.558Z,5.73
2023-02-20T14:44:33.683Z,6.47
2023-02-20T14:45:36.284Z,6.32
2023-02-20T14:46:38.707Z,5.93
2023-02-20T14:47:58.526Z,5.75
2023-02-20T14:49:13.626Z,5.72
2023-02-20T14:50:35.895Z,6.12
2023-02-20T14:51:38.413Z,5.83
2023-02-20T14:52:40.910Z,6.32
2023-02-20T14:53:45.108Z,6.08
2023-02-20T14:55:02.615Z,5.87
2023-02-20T14:56:18.599Z,6.32
2023-02-20T14:57:21.088Z,5.98
2023-02-20T14:58:23.524Z,6.08
2023-02-20T14:59:28.632Z,6.07
2023-02-20T15:00:38.955Z,6.35
2023-02-20T15:01:41.693Z,6.43
2023-02-20T15:02:48.524Z,6.17
2023-02-20T15:04:14.843Z,6.47
2023-02-20T15:05:31.277Z,6.12
2023-02-20T15:06:38.360Z,6.32
2023-02-20T15:07:40.828Z,6.55
2023-02-20T15:08:43.224Z,6.33
2023-02-20T15:09:47.279Z,6.62
2023-02-20T15:10:54.904Z,6.55
2023-02-20T15:11:59.448Z,6.55
2023-02-20T15:13:15.118Z,6.07
2023-02-20T15:14:26.218Z,6.83
2023-02-20T15:15:35.494Z,5.97
2023-02-20T15:16:40.380Z,5.82
2023-02-20T15:17:44.384Z,6.32
2023-02-20T15:18:50.158Z,6.07
2023-02-20T15:19:53.132Z,6.03
2023-02-20T15:20:55.465Z,5.90